Time;durP1;ratioP1;P1;durP2;ratioP2;P2;SDS_P1;SDS_P2;PMS_P1;PMS_P2;Temp;Humidity;BMP_temperature;BMP_pressure;BME280_temperature;BME280_humidity;BME280_pressure;Samples;Min_cycle;Max_cycle;Signal;HPM_P1;HPM_P2
2022/05/08 00:01:08;;;;;;;14.20;12.30;;;21.30;61.20;;;;;;5041896;28;20025;-83
2022/05/08 00:03:34;;;;;;;13.20;11.35;;;21.40;61.20;;;;;;5039607;28;20110;-85
2022/05/08 00:06:02;;;;;;;12.85;11.43;;;21.40;60.70;;;;;;5034598;28;20026;-86
2022/05/08 00:08:29;;;;;;;13.65;12.25;;;21.40;60.50;;;;;;5051189;28;20071;-86
2022/05/08 00:10:54;;;;;;;14.65;11.38;;;21.10;61.80;;;;;;5053148;28;20472;-90
2022/05/08 00:13:20;;;;;;;13.48;11.30;;;20.80;62.30;;;;;;5058248;28;20070;-84
2022/05/08 00:15:46;;;;;;;14.55;12.00;;;19.50;66.70;;;;;;5041912;28;20474;-85
2022/05/08 00:18:11;;;;;;;13.15;11.10;;;19.60;66.90;;;;;;5059432;28;20464;-85
2022/05/08 00:20:37;;;;;;;15.57;11.98;;;20.20;64.60;;;;;;5041921;28;20471;-85
2022/05/08 00:23:09;;;;;;;12.88;11.50;;;20.30;65.30;;;;;;5059485;28;20013;-84
2022/05/08 00:25:34;;;;;;;13.15;11.00;;;19.90;66.60;;;;;;5041755;28;20051;-84
2022/05/08 00:28:00;;;;;;;14.13;11.35;;;19.60;65.80;;;;;;5038773;28;20887;-85
2022/05/08 00:30:26;;;;;;;14.20;10.93;;;20.00;64.30;;;;;;5037058;28;20092;-84
2022/05/08 00:32:51;;;;;;;13.30;11.23;;;20.50;62.30;;;;;;5059297;28;20036;-84
2022/05/08 00:35:17;;;;;;;12.68;10.85;;;20.50;61.70;;;;;;5060084;28;20108;-83
2022/05/08 00:37:43;;;;;;;13.93;11.88;;;20.80;61.20;;;;;;5059253;28;20036;-85
2022/05/08 00:40:08;;;;;;;16.02;13.60;;;20.90;60.90;;;;;;5059015;28;20029;-85
2022/05/08 00:42:34;;;;;;;14.82;12.65;;;21.00;61.20;;;;;;5041982;28;20455;-84
2022/05/08 00:45:00;;;;;;;16.45;14.18;;;21.00;61.30;;;;;;5059875;28;20122;-84
2022/05/08 00:47:25;;;;;;;18.63;15.13;;;20.90;61.90;;;;;;5059197;28;20472;-84
2022/05/08 00:49:52;;;;;;;17.15;13.60;;;21.10;61.60;;;;;;5038215;28;20404;-83
2022/05/08 00:52:18;;;;;;;15.57;13.98;;;21.30;61.10;;;;;;5053747;28;20075;-84
2022/05/08 00:54:45;;;;;;;13.82;12.23;;;21.00;61.90;;;;;;5041601;28;20044;-83
2022/05/08 00:57:11;;;;;;;14.40;12.57;;;20.90;60.90;;;;;;5058733;28;20025;-84
2022/05/08 00:59:36;;;;;;;14.65;12.38;;;20.80;61.10;;;;;;5041276;28;20498;-83
2022/05/08 01:02:03;;;;;;;14.50;12.52;;;21.00;60.70;;;;;;5039971;28;20018;-84
2022/05/08 01:04:30;;;;;;;17.25;13.38;;;21.10;60.50;;;;;;5038144;28;20036;-84
2022/05/08 01:06:55;;;;;;;16.40;14.55;;;21.20;60.20;;;;;;5038315;28;20040;-83
2022/05/08 01:09:22;;;;;;;14.80;13.30;;;21.30;60.40;;;;;;5034247;28;20041;-82
2022/05/08 01:11:49;;;;;;;22.05;13.98;;;21.20;60.30;;;;;;5032355;28;20115;-85
2022/05/08 01:14:14;;;;;;;17.73;14.63;;;21.20;60.50;;;;;;5038266;28;20387;-82
2022/05/08 01:16:40;;;;;;;18.63;15.20;;;21.20;60.40;;;;;;5045087;28;20029;-82
2022/05/08 01:19:06;;;;;;;19.48;13.98;;;21.30;60.40;;;;;;5041093;28;20029;-81
2022/05/08 01:21:35;;;;;;;16.15;14.13;;;21.20;59.90;;;;;;5037001;28;20061;-82
2022/05/08 01:24:01;;;;;;;18.23;15.57;;;21.10;60.00;;;;;;5037910;28;20021;-81
2022/05/08 01:26:27;;;;;;;15.85;13.70;;;20.80;61.40;;;;;;5050295;28;20044;-81
2022/05/08 01:28:52;;;;;;;17.20;13.73;;;20.70;61.10;;;;;;5035376;28;20609;-81
2022/05/08 01:31:18;;;;;;;17.17;14.23;;;20.70;62.00;;;;;;5053929;28;20573;-81
2022/05/08 01:33:44;;;;;;;16.23;14.02;;;20.80;62.30;;;;;;5045873;28;20051;-81
2022/05/08 01:36:10;;;;;;;15.73;13.75;;;20.90;61.30;;;;;;5054672;28;20037;-82
2022/05/08 01:38:35;;;;;;;18.77;15.13;;;20.80;60.50;;;;;;5033610;28;20029;-80
2022/05/08 01:41:04;;;;;;;18.17;13.95;;;20.80;60.30;;;;;;5036626;28;20544;-80
2022/05/08 01:43:36;;;;;;;16.48;14.25;;;20.80;60.00;;;;;;5037671;28;20039;-81
2022/05/08 01:46:03;;;;;;;16.73;13.57;;;20.70;60.30;;;;;;5037158;28;20074;-82
2022/05/08 01:48:30;;;;;;;16.00;14.13;;;20.90;60.40;;;;;;5035282;28;20165;-81
2022/05/08 01:50:57;;;;;;;16.13;13.27;;;20.60;61.70;;;;;;5054107;28;20045;-82
2022/05/08 01:53:28;;;;;;;15.13;12.98;;;20.70;61.40;;;;;;5037310;28;20021;-81
2022/05/08 01:55:56;;;;;;;16.17;13.60;;;20.90;60.70;;;;;;5031668;28;20383;-81
2022/05/08 01:58:24;;;;;;;13.35;11.73;;;21.00;60.40;;;;;;5045939;28;20052;-80
2022/05/08 02:00:50;;;;;;;14.80;13.20;;;21.00;59.90;;;;;;5036043;28;20021;-81
2022/05/08 02:03:17;;;;;;;16.05;13.57;;;20.70;61.40;;;;;;5054215;28;20029;-82
2022/05/08 02:05:43;;;;;;;13.48;11.65;;;20.80;61.10;;;;;;5053772;28;20039;-80
2022/05/08 02:08:10;;;;;;;16.45;13.00;;;20.80;60.00;;;;;;5034971;28;20379;-80
2022/05/08 02:10:36;;;;;;;15.63;11.40;;;20.80;59.90;;;;;;5034915;28;20033;-80
2022/05/08 02:13:03;;;;;;;14.60;12.02;;;20.70;59.60;;;;;;5053037;28;20024;-80
2022/05/08 02:15:29;;;;;;;14.95;11.95;;;20.70;60.00;;;;;;5041278;28;20036;-80
2022/05/08 02:18:06;;;;;;;16.02;13.75;;;20.80;60.40;;;;;;5036726;28;20044;-81
2022/05/08 02:20:33;;;;;;;14.90;12.38;;;20.60;60.70;;;;;;5024033;28;20110;-80
2022/05/08 02:22:59;;;;;;;13.63;12.23;;;20.70;60.70;;;;;;5042134;28;20029;-80
2022/05/08 02:25:25;;;;;;;12.57;11.25;;;20.50;61.60;;;;;;5049644;28;20036;-79
2022/05/08 02:27:51;;;;;;;15.13;12.55;;;20.50;60.90;;;;;;5051143;28;20032;-79
2022/05/08 02:30:20;;;;;;;15.98;12.20;;;20.60;61.00;;;;;;5046443;28;20026;-79
2022/05/08 02:32:46;;;;;;;13.40;11.23;;;20.60;61.60;;;;;;5033858;28;20029;-79
2022/05/08 02:35:12;;;;;;;13.45;11.73;;;20.50;60.70;;;;;;5034164;28;20055;-80
2022/05/08 02:37:39;;;;;;;13.82;11.93;;;20.60;60.70;;;;;;5052976;28;20094;-79
2022/05/08 02:40:08;;;;;;;12.82;11.52;;;20.70;60.20;;;;;;5052498;28;20430;-78
2022/05/08 02:42:37;;;;;;;13.13;11.00;;;20.60;61.10;;;;;;5036069;28;20029;-80
2022/05/08 02:45:04;;;;;;;12.45;10.80;;;20.40;60.50;;;;;;5034242;28;20079;-79
2022/05/08 02:47:32;;;;;;;12.48;10.95;;;20.40;60.50;;;;;;5050910;28;20447;-79
2022/05/08 02:49:58;;;;;;;12.57;11.15;;;20.40;60.40;;;;;;5052137;28;20475;-78
2022/05/08 02:52:24;;;;;;;12.18;10.15;;;20.60;60.00;;;;;;5034490;28;20074;-79
2022/05/08 02:54:49;;;;;;;12.75;10.40;;;20.40;60.90;;;;;;5051596;28;20028;-78
2022/05/08 03:00:07;;;;;;;12.80;10.70;;;20.10;60.60;;;;;;5052451;28;20094;-80
2022/05/08 03:02:34;;;;;;;12.85;10.75;;;20.10;61.00;;;;;;5025738;28;20395;-78
2022/05/08 03:05:03;;;;;;;12.45;10.25;;;19.90;61.80;;;;;;5030959;28;20124;-78
2022/05/08 03:07:29;;;;;;;13.52;11.48;;;19.70;61.60;;;;;;5021833;28;20124;-78
2022/05/08 03:09:55;;;;;;;13.65;11.60;;;19.40;63.30;;;;;;5052141;28;20037;-79
2022/05/08 03:12:21;;;;;;;14.98;11.25;;;19.30;62.60;;;;;;5052984;28;20032;-77
2022/05/08 03:14:47;;;;;;;14.40;11.98;;;19.30;62.70;;;;;;5051959;28;20100;-80
2022/05/08 03:17:12;;;;;;;12.82;11.13;;;19.50;62.20;;;;;;5053107;28;20109;-78
2022/05/08 03:19:38;;;;;;;13.80;11.77;;;19.70;61.90;;;;;;5049560;28;20035;-78
2022/05/08 03:22:04;;;;;;;12.93;11.13;;;20.00;61.80;;;;;;5034990;28;20021;-78
2022/05/08 03:24:31;;;;;;;16.27;12.30;;;20.10;61.30;;;;;;5051053;28;20036;-78
2022/05/08 03:26:57;;;;;;;14.23;11.68;;;20.30;61.10;;;;;;5052664;28;20032;-77
2022/05/08 03:29:25;;;;;;;13.68;11.45;;;20.40;60.50;;;;;;5050437;28;20033;-77
2022/05/08 03:31:51;;;;;;;14.73;11.57;;;20.50;60.30;;;;;;5034078;28;20659;-78
2022/05/08 03:34:17;;;;;;;12.23;9.85;;;20.50;60.30;;;;;;5044271;28;20570;-79
2022/05/08 03:36:43;;;;;;;14.55;12.50;;;20.50;60.80;;;;;;5045754;28;20549;-76
2022/05/08 03:39:11;;;;;;;17.25;11.10;;;20.40;61.60;;;;;;5048768;28;20017;-76
2022/05/08 03:41:37;;;;;;;13.18;10.90;;;20.60;60.90;;;;;;5039151;28;20032;-76
2022/05/08 03:44:03;;;;;;;12.57;11.00;;;20.70;60.60;;;;;;5034178;28;20021;-76
2022/05/08 03:46:29;;;;;;;13.07;11.07;;;20.80;60.20;;;;;;5032719;28;20036;-76
2022/05/08 03:48:55;;;;;;;14.13;11.32;;;20.90;60.20;;;;;;5034844;28;20124;-78
2022/05/08 03:51:21;;;;;;;12.95;11.25;;;21.00;59.90;;;;;;5050113;28;20045;-76
2022/05/08 03:53:47;;;;;;;12.68;11.00;;;20.70;61.30;;;;;;5052907;28;20017;-76
2022/05/08 03:56:12;;;;;;;14.48;11.65;;;20.60;61.70;;;;;;5032863;28;20548;-77
2022/05/08 03:58:38;;;;;;;13.20;10.75;;;20.80;61.30;;;;;;5049999;28;20033;-78
2022/05/08 04:01:05;;;;;;;13.70;12.20;;;20.90;61.40;;;;;;5050815;28;20028;-76
2022/05/08 04:03:30;;;;;;;13.00;10.85;;;21.00;61.00;;;;;;4352464;28;10000726;-75
2022/05/08 04:05:56;;;;;;;12.13;10.38;;;21.00;60.20;;;;;;5044258;28;20446;-76
2022/05/08 04:08:21;;;;;;;12.15;10.55;;;20.90;60.80;;;;;;5021000;28;20029;-76
2022/05/08 04:10:47;;;;;;;14.10;10.82;;;20.90;60.60;;;;;;5012349;28;20045;-76
2022/05/08 04:13:13;;;;;;;15.77;12.43;;;20.90;61.20;;;;;;5010874;28;20053;-77
2022/05/08 04:18:22;;;;;;;13.43;11.23;;;20.90;61.80;;;;;;5049255;28;20067;-76
2022/05/08 04:20:48;;;;;;;13.60;11.45;;;21.10;61.60;;;;;;5031039;28;20029;-77
2022/05/08 04:25:58;;;;;;;14.38;11.95;;;21.20;61.30;;;;;;5029689;28;20451;-76
2022/05/08 04:28:24;;;;;;;12.90;10.85;;;21.00;62.00;;;;;;5012023;28;20124;-76
2022/05/08 04:30:51;;;;;;;16.45;12.15;;;21.20;61.80;;;;;;5011786;28;20737;-77
2022/05/08 04:33:16;;;;;;;13.13;11.70;;;21.40;61.50;;;;;;5029502;28;20030;-76
2022/05/08 04:35:42;;;;;;;10.68;9.57;;;21.60;61.00;;;;;;5030378;28;20120;-78
2022/05/08 04:38:09;;;;;;;12.60;11.13;;;21.60;61.40;;;;;;5033291;28;20467;-78
2022/05/08 04:40:35;;;;;;;15.02;13.07;;;21.50;62.00;;;;;;5034468;28;20448;-78
2022/05/08 04:43:01;;;;;;;12.85;11.35;;;21.70;61.70;;;;;;5035249;28;20032;-78
2022/05/08 04:45:27;;;;;;;13.38;10.52;;;21.90;61.20;;;;;;5052101;28;20037;-78
2022/05/08 04:47:52;;;;;;;13.90;11.32;;;22.10;60.90;;;;;;5034938;28;20411;-78
2022/05/08 04:50:18;;;;;;;14.85;10.95;;;22.10;61.20;;;;;;5034282;28;20037;-79
2022/05/08 04:52:44;;;;;;;12.70;11.32;;;22.30;61.10;;;;;;5029413;28;20033;-78
2022/05/08 04:55:09;;;;;;;12.70;10.98;;;22.30;61.10;;;;;;5028604;28;20504;-79
2022/05/08 04:57:35;;;;;;;12.95;11.07;;;22.40;61.30;;;;;;5013710;28;20033;-78
2022/05/08 05:00:01;;;;;;;13.18;11.13;;;22.10;61.70;;;;;;5012838;28;20492;-78
2022/05/08 05:02:27;;;;;;;11.60;10.15;;;22.20;61.70;;;;;;5023142;28;20060;-79
2022/05/08 05:04:53;;;;;;;11.73;9.73;;;22.10;62.00;;;;;;5032820;28;20021;-78
2022/05/08 05:07:18;;;;;;;12.13;10.93;;;22.00;62.20;;;;;;5032343;28;20021;-83
2022/05/08 05:09:45;;;;;;;12.68;11.30;;;22.20;62.30;;;;;;5033811;28;20550;-78
2022/05/08 05:12:11;;;;;;;14.85;10.32;;;22.50;62.00;;;;;;5035340;28;20043;-79
2022/05/08 05:14:37;;;;;;;14.45;10.98;;;22.80;61.50;;;;;;5034071;28;20032;-81
2022/05/08 05:17:03;;;;;;;12.68;10.93;;;23.00;61.20;;;;;;5034912;28;20017;-79
2022/05/08 05:19:29;;;;;;;10.80;9.70;;;23.10;61.10;;;;;;5034444;28;20111;-80
2022/05/08 05:21:54;;;;;;;10.68;9.55;;;23.30;60.60;;;;;;5053692;28;20057;-80
2022/05/08 05:24:20;;;;;;;10.68;9.57;;;23.50;60.30;;;;;;5036357;28;20102;-80
2022/05/08 05:26:46;;;;;;;11.52;9.38;;;23.70;59.90;;;;;;5036691;28;20033;-82
2022/05/08 05:29:11;;;;;;;10.60;8.45;;;23.90;59.30;;;;;;5054547;28;20079;-82
2022/05/08 05:31:37;;;;;;;11.20;8.63;;;24.00;59.10;;;;;;5052078;28;20029;-79
2022/05/08 05:34:03;;;;;;;11.70;8.63;;;24.20;58.30;;;;;;5054253;28;20024;-82
2022/05/08 05:36:28;;;;;;;8.40;7.50;;;24.50;58.10;;;;;;5032125;28;20049;-82
2022/05/08 05:38:54;;;;;;;9.20;7.60;;;24.60;57.10;;;;;;5027024;28;20057;-80
2022/05/08 05:41:20;;;;;;;8.70;7.80;;;24.30;57.90;;;;;;5032877;28;20025;-83
2022/05/08 05:43:46;;;;;;;9.90;7.90;;;24.40;58.40;;;;;;5017949;28;20026;-85
2022/05/08 05:48:55;;;;;;;9.35;7.53;;;24.60;57.00;;;;;;5043657;28;20581;-80
2022/05/08 05:51:21;;;;;;;9.35;8.13;;;24.60;57.20;;;;;;5055508;28;20041;-84
2022/05/08 05:53:47;;;;;;;7.85;7.05;;;24.70;57.60;;;;;;5037532;28;20159;-83
2022/05/08 05:56:13;;;;;;;8.80;7.40;;;24.70;57.70;;;;;;5037871;28;20036;-82
2022/05/08 05:58:38;;;;;;;10.63;7.32;;;24.90;57.10;;;;;;5037237;28;20025;-85
2022/05/08 06:01:04;;;;;;;8.85;7.63;;;24.80;56.80;;;;;;5036905;28;20033;-86
2022/05/08 06:03:31;;;;;;;8.70;7.78;;;24.90;56.90;;;;;;5037325;28;20382;-87
2022/05/08 06:05:57;;;;;;;9.10;6.75;;;24.90;55.90;;;;;;5037093;28;20032;-85
2022/05/08 06:08:23;;;;;;;9.00;6.97;;;24.60;56.40;;;;;;5036551;28;20060;-78
2022/05/08 06:10:48;;;;;;;8.18;7.20;;;24.60;57.00;;;;;;5039062;28;20065;-84
2022/05/08 06:13:14;;;;;;;9.70;6.85;;;24.70;57.10;;;;;;5033280;28;20029;-86
2022/05/08 06:15:40;;;;;;;11.90;7.38;;;24.60;56.90;;;;;;5036366;28;20480;-81
2022/05/08 06:18:05;;;;;;;9.35;7.60;;;24.00;58.30;;;;;;5036185;28;20028;-82
2022/05/08 06:20:32;;;;;;;8.80;7.45;;;23.90;57.90;;;;;;5036818;28;20427;-85
2022/05/08 06:22:58;;;;;;;8.73;7.57;;;24.50;57.90;;;;;;5035477;28;20094;-83
2022/05/08 06:25:24;;;;;;;8.43;7.15;;;24.70;57.90;;;;;;5035050;28;20472;-83
2022/05/08 06:27:50;;;;;;;8.50;7.10;;;25.00;57.60;;;;;;5033340;28;20048;-78
2022/05/08 06:30:15;;;;;;;9.00;6.85;;;25.20;57.10;;;;;;5054238;28;20508;-82
2022/05/08 06:32:41;;;;;;;8.38;6.60;;;25.10;57.00;;;;;;5036284;28;20021;-82
2022/05/08 06:35:12;;;;;;;8.63;7.07;;;25.50;55.90;;;;;;4861492;28;10000814;-81
2022/05/08 06:37:37;;;;;;;7.57;6.72;;;25.90;55.50;;;;;;5021599;28;20286;-81
2022/05/08 06:40:03;;;;;;;9.98;6.90;;;25.90;55.30;;;;;;5034931;28;20029;-80
2022/05/08 06:42:31;;;;;;;7.22;6.25;;;24.40;57.90;;;;;;5048822;28;20492;-81
2022/05/08 06:44:56;;;;;;;8.02;6.75;;;23.10;59.30;;;;;;5050889;28;20029;-79
2022/05/08 06:47:22;;;;;;;8.50;6.55;;;22.80;59.80;;;;;;5051639;28;20135;-78
2022/05/08 06:49:48;;;;;;;9.13;6.35;;;23.50;59.30;;;;;;5049984;28;20490;-80
2022/05/08 06:52:15;;;;;;;7.07;6.05;;;24.40;56.60;;;;;;5048752;28;20526;-86
2022/05/08 06:54:40;;;;;;;7.75;6.60;;;24.90;56.80;;;;;;5031444;28;20033;-79
2022/05/08 06:57:06;;;;;;;10.35;6.85;;;25.30;55.60;;;;;;5028965;28;20030;-80
2022/05/08 07:02:16;;;;;;;9.55;6.43;;;26.10;55.50;;;;;;5044757;28;20159;-80
2022/05/08 07:04:42;;;;;;;10.02;7.28;;;26.30;54.50;;;;;;5049092;28;20096;-79
2022/05/08 07:07:08;;;;;;;10.23;6.60;;;26.70;55.20;;;;;;5030222;28;20033;-78
2022/05/08 07:09:35;;;;;;;7.82;6.30;;;26.80;54.30;;;;;;5031815;28;20056;-79
2022/05/08 07:12:01;;;;;;;10.32;6.45;;;27.10;54.80;;;;;;5031740;28;20036;-78
2022/05/08 07:14:26;;;;;;;7.60;6.68;;;27.20;53.70;;;;;;5049221;28;20025;-80
2022/05/08 07:16:52;;;;;;;7.53;5.93;;;27.00;54.10;;;;;;5027927;28;20037;-79
2022/05/08 07:19:18;;;;;;;6.50;5.80;;;25.90;54.10;;;;;;5031703;28;20088;-79
2022/05/08 07:21:44;;;;;;;6.97;5.95;;;25.90;56.00;;;;;;5037800;28;20033;-79
2022/05/08 07:24:09;;;;;;;6.32;5.60;;;25.60;55.30;;;;;;5024800;28;20112;-77
2022/05/08 07:26:38;;;;;;;6.80;6.10;;;25.10;56.30;;;;;;5049929;28;20029;-79
2022/05/08 07:29:06;;;;;;;7.40;5.40;;;25.50;56.20;;;;;;5032251;28;20029;-78
2022/05/08 07:31:32;;;;;;;8.27;6.10;;;25.60;55.80;;;;;;5031502;28;20302;-80
2022/05/08 07:37:02;;;;;;;7.85;5.80;;;26.00;56.10;;;;;;4958722;28;20038;-77
2022/05/08 07:39:28;;;;;;;7.10;6.13;;;25.10;55.10;;;;;;4968565;28;20038;-77
2022/05/08 07:41:54;;;;;;;6.90;5.78;;;25.00;55.80;;;;;;4968694;28;20138;-78
2022/05/08 07:44:19;;;;;;;6.95;5.55;;;25.70;55.10;;;;;;4959188;28;20479;-78
2022/05/08 07:46:45;;;;;;;7.85;5.57;;;25.40;53.60;;;;;;4949483;29;20070;-77
2022/05/08 07:49:11;;;;;;;8.02;5.85;;;24.90;54.60;;;;;;4948688;29;20118;-77
2022/05/08 07:51:37;;;;;;;6.95;5.30;;;25.10;55.70;;;;;;4949131;29;20047;-77
2022/05/08 07:54:02;;;;;;;10.63;5.93;;;25.20;55.20;;;;;;4949455;29;20035;-76
2022/05/08 07:56:28;;;;;;;7.43;5.40;;;24.90;53.90;;;;;;4965211;28;20043;-76
2022/05/08 07:58:54;;;;;;;6.28;5.40;;;24.20;54.70;;;;;;4950063;28;20065;-76
2022/05/08 08:01:20;;;;;;;6.10;5.50;;;24.20;55.30;;;;;;4962071;28;20053;-77
2022/05/08 08:03:45;;;;;;;8.10;6.07;;;24.50;54.40;;;;;;4950895;28;20122;-77
2022/05/08 08:06:11;;;;;;;7.72;6.30;;;24.60;54.00;;;;;;4930077;29;20119;-78
2022/05/08 08:08:37;;;;;;;8.73;5.80;;;24.80;54.30;;;;;;5013474;28;20404;-78
2022/05/08 08:11:04;;;;;;;7.25;5.75;;;25.10;53.90;;;;;;5011314;28;20041;-76
2022/05/08 08:13:31;;;;;;;6.72;5.82;;;25.70;52.20;;;;;;5019465;28;20040;-78
2022/05/08 08:15:58;;;;;;;6.95;6.18;;;25.30;52.80;;;;;;5050526;28;20029;-77
2022/05/08 08:18:24;;;;;;;6.93;5.90;;;25.90;53.50;;;;;;5033046;28;20384;-80
2022/05/08 08:20:50;;;;;;;8.57;5.70;;;26.90;52.30;;;;;;5032901;28;20794;-76
2022/05/08 08:23:15;;;;;;;7.07;6.13;;;27.80;51.20;;;;;;5032463;28;20037;-77
2022/05/08 08:25:42;;;;;;;7.65;6.32;;;27.80;51.10;;;;;;5052854;28;20190;-76
2022/05/08 08:28:09;;;;;;;7.13;5.80;;;27.70;50.80;;;;;;5052968;28;20053;-79
2022/05/08 08:30:34;;;;;;;7.07;5.55;;;28.00;50.90;;;;;;5035240;28;20045;-81
2022/05/08 08:33:00;;;;;;;7.57;6.05;;;28.20;49.40;;;;;;5035683;28;20063;-77
2022/05/08 08:35:26;;;;;;;7.35;6.15;;;27.90;49.30;;;;;;5052696;28;20071;-76
2022/05/08 08:37:52;;;;;;;7.70;6.03;;;28.20;49.80;;;;;;5052022;28;20383;-80
2022/05/08 08:40:18;;;;;;;6.95;6.03;;;28.40;48.70;;;;;;5035269;28;20029;-76
2022/05/08 08:42:44;;;;;;;7.53;6.72;;;28.20;50.10;;;;;;5051635;28;20028;-76
2022/05/08 08:48:01;;;;;;;8.27;5.68;;;28.80;49.20;;;;;;5051820;28;20465;-76
2022/05/08 08:50:28;;;;;;;7.57;5.53;;;28.70;46.20;;;;;;5035365;28;20051;-77
2022/05/08 08:52:57;;;;;;;6.07;5.47;;;28.30;47.60;;;;;;5052028;28;20063;-78
2022/05/08 08:55:23;;;;;;;6.38;5.45;;;28.10;47.10;;;;;;5052399;28;20029;-78
2022/05/08 08:57:49;;;;;;;6.75;5.30;;;28.60;48.90;;;;;;5034767;28;20036;-79
2022/05/08 09:00:16;;;;;;;6.25;5.20;;;28.70;47.30;;;;;;5051876;28;20116;-74
2022/05/08 09:02:42;;;;;;;8.15;4.80;;;27.60;47.90;;;;;;5032943;28;20025;-77
2022/05/08 09:05:09;;;;;;;7.93;5.68;;;27.30;49.30;;;;;;5052628;28;20094;-76
2022/05/08 09:07:38;;;;;;;6.32;5.60;;;27.60;50.10;;;;;;5034104;28;20511;-76
2022/05/08 09:10:14;;;;;;;6.88;5.38;;;28.20;50.80;;;;;;5052211;28;20040;-78
2022/05/08 09:12:41;;;;;;;6.45;5.13;;;28.70;47.60;;;;;;5050885;28;20040;-77
2022/05/08 09:15:21;;;;;;;7.22;4.70;;;28.60;47.70;;;;;;5052071;28;20104;-77
2022/05/08 09:17:52;;;;;;;7.30;5.20;;;28.30;47.10;;;;;;5053935;28;20278;-77
2022/05/08 09:20:27;;;;;;;8.18;5.20;;;28.30;47.10;;;;;;5034421;28;20048;-76
2022/05/08 09:23:11;;;;;;;7.57;5.50;;;27.50;47.90;;;;;;5049397;28;20399;-76
2022/05/08 09:25:46;;;;;;;7.32;5.35;;;27.20;50.20;;;;;;5034257;28;20044;-79
2022/05/08 09:28:13;;;;;;;6.53;5.00;;;27.10;47.80;;;;;;5052026;28;20033;-75
2022/05/08 09:30:58;;;;;;;7.70;5.65;;;26.50;50.60;;;;;;5050271;28;20063;-76
2022/05/08 09:33:33;;;;;;;7.03;4.95;;;27.20;49.40;;;;;;5051850;28;20156;-83
2022/05/08 09:36:01;;;;;;;9.43;5.75;;;28.00;47.60;;;;;;5051651;28;20021;-76
2022/05/08 09:38:55;;;;;;;5.63;4.93;;;27.40;48.30;;;;;;5052619;28;20017;-76
2022/05/08 09:41:30;;;;;;;7.43;5.63;;;27.20;48.70;;;;;;5053978;28;20048;-77
2022/05/08 09:44:15;;;;;;;6.85;5.18;;;27.70;49.20;;;;;;5051476;28;20048;-78
2022/05/08 09:46:46;;;;;;;6.70;5.07;;;28.70;47.20;;;;;;5032619;28;20391;-75
2022/05/08 09:49:23;;;;;;;6.75;4.97;;;28.40;48.30;;;;;;5050871;28;20063;-76
2022/05/08 09:51:50;;;;;;;9.90;5.40;;;28.60;48.60;;;;;;5050527;28;20033;-85
2022/05/08 09:54:17;;;;;;;8.07;5.35;;;28.10;47.10;;;;;;5051572;28;20040;-75
2022/05/08 09:56:46;;;;;;;7.13;5.20;;;27.00;49.60;;;;;;5034293;28;20490;-78
2022/05/08 09:59:13;;;;;;;7.20;4.80;;;27.50;48.90;;;;;;5052061;28;20119;-75
2022/05/08 10:01:39;;;;;;;9.32;5.55;;;28.20;48.20;;;;;;5051555;28;20057;-85
2022/05/08 10:04:05;;;;;;;5.85;4.90;;;28.30;48.40;;;;;;5053269;28;20024;-81
2022/05/08 10:06:34;;;;;;;6.53;4.97;;;28.20;48.20;;;;;;5053167;28;20029;-73
2022/05/08 10:14:33;;;;;;;6.97;5.28;;;26.40;50.00;;;;;;5054366;28;20032;-82
2022/05/08 10:16:59;;;;;;;7.75;5.55;;;27.00;50.00;;;;;;5054197;28;20383;-81
2022/05/08 10:19:25;;;;;;;5.30;4.75;;;27.40;48.90;;;;;;5053563;28;20472;-79
2022/05/08 10:22:02;;;;;;;8.73;5.00;;;27.40;48.40;;;;;;5053926;28;20033;-76
2022/05/08 10:24:41;;;;;;;8.93;5.18;;;28.00;49.70;;;;;;5052784;28;20021;-76
2022/05/08 10:27:14;;;;;;;6.63;5.57;;;28.20;48.00;;;;;;5054947;28;20036;-79
2022/05/08 10:30:01;;;;;;;6.57;4.88;;;28.10;49.80;;;;;;5036490;28;20033;-79
2022/05/08 10:32:33;;;;;;;5.70;4.70;;;29.30;48.50;;;;;;5051352;28;20522;-78
2022/05/08 10:35:09;;;;;;;7.38;4.75;;;29.70;47.70;;;;;;5055555;28;20502;-83
2022/05/08 10:37:35;;;;;;;6.18;5.13;;;29.30;47.00;;;;;;5054544;28;20356;-78
2022/05/08 10:40:01;;;;;;;6.00;4.65;;;29.30;47.70;;;;;;5036068;28;20059;-89
2022/05/08 10:42:33;;;;;;;5.38;4.57;;;29.70;48.00;;;;;;5054197;28;20100;-83
2022/05/08 10:45:00;;;;;;;7.32;4.53;;;30.00;47.90;;;;;;5050274;28;20029;-82
2022/05/08 10:47:40;;;;;;;5.32;4.53;;;30.00;47.10;;;;;;5030135;28;20572;-78
2022/05/08 10:50:07;;;;;;;6.63;4.45;;;30.80;48.20;;;;;;5014034;28;20069;-79
2022/05/08 10:52:37;;;;;;;7.28;4.65;;;31.20;46.70;;;;;;5012946;28;20602;-78
2022/05/08 10:55:08;;;;;;;6.65;4.70;;;31.20;46.50;;;;;;5013989;28;20029;-79
2022/05/08 10:57:34;;;;;;;;;;;31.10;45.50;;;;;;5014415;28;20026;-76
2022/05/08 11:00:01;;;;;;;5.88;4.80;;;31.00;46.90;;;;;;5013710;28;19932;-76
2022/05/08 11:02:40;;;;;;;5.20;4.70;;;31.10;46.10;;;;;;5024865;28;20017;-78
2022/05/08 11:05:26;;;;;;;5.45;4.38;;;31.20;46.30;;;;;;5031035;28;20037;-82
2022/05/08 11:07:56;;;;;;;5.93;4.68;;;31.10;44.70;;;;;;5011337;28;20416;-78
2022/05/08 11:10:24;;;;;;;8.00;4.88;;;31.20;44.80;;;;;;5024839;28;20393;-79
2022/05/08 11:13:10;;;;;;;7.07;5.10;;;31.40;46.00;;;;;;5033483;28;20022;-83
2022/05/08 11:15:42;;;;;;;6.45;4.50;;;31.10;46.50;;;;;;5033633;28;20100;-77
2022/05/08 11:18:19;;;;;;;6.35;4.47;;;30.80;45.20;;;;;;5017411;28;20025;-78
2022/05/08 11:20:49;;;;;;;8.23;5.25;;;30.80;46.00;;;;;;5013706;28;20075;-78
2022/05/08 11:23:16;;;;;;;9.47;4.67;;;31.00;46.20;;;;;;5013222;28;20392;-81
2022/05/08 11:25:46;;;;;;;5.50;4.80;;;31.30;46.30;;;;;;5013094;28;20049;-78
2022/05/08 11:28:17;;;;;;;6.70;4.78;;;31.30;45.60;;;;;;5029628;28;20083;-81
2022/05/08 11:30:46;;;;;;;5.82;4.45;;;31.10;46.30;;;;;;5020663;28;20095;-77
2022/05/08 11:36:08;;;;;;;7.25;5.10;;;31.10;45.20;;;;;;5026176;28;20068;-77
2022/05/08 11:38:56;;;;;;;7.63;5.03;;;31.00;46.20;;;;;;5014810;28;20165;-78
2022/05/08 11:41:49;;;;;;;6.28;4.90;;;30.50;46.10;;;;;;5011973;28;20428;-79
2022/05/08 11:44:14;;;;;;;6.90;4.50;;;29.10;46.50;;;;;;5025538;28;20547;-85
2022/05/08 11:46:40;;;;;;;6.95;5.10;;;29.80;46.60;;;;;;5026228;28;20040;-86
2022/05/08 11:49:24;;;;;;;6.28;4.90;;;30.40;47.00;;;;;;5030601;28;20057;-77
2022/05/08 11:51:54;;;;;;;6.60;4.80;;;31.10;46.30;;;;;;5017565;28;20038;-83
2022/05/08 11:54:23;;;;;;;9.77;4.80;;;30.70;45.00;;;;;;5030667;28;20068;-80
2022/05/08 11:56:52;;;;;;;7.13;4.85;;;30.50;45.80;;;;;;5032602;28;20030;-78
2022/05/08 11:59:20;;;;;;;7.85;4.40;;;30.90;46.70;;;;;;5031774;28;20021;-85
2022/05/08 12:01:52;;;;;;;7.20;4.80;;;31.10;45.00;;;;;;4684072;28;9999679;-77
2022/05/08 12:04:27;;;;;;;8.70;5.00;;;30.80;46.40;;;;;;5030236;28;20080;-78
2022/05/08 12:07:05;;;;;;;6.88;4.80;;;30.50;46.00;;;;;;5030626;28;20022;-76
2022/05/08 12:09:33;;;;;;;6.93;4.47;;;30.80;46.50;;;;;;5028178;28;20524;-77
2022/05/08 12:12:25;;;;;;;8.90;4.50;;;30.60;45.70;;;;;;5032775;28;20061;-82
2022/05/08 12:14:54;;;;;;;5.97;4.30;;;29.90;45.90;;;;;;5031893;28;20113;-79
2022/05/08 12:17:21;;;;;;;7.43;4.60;;;29.80;46.10;;;;;;5033068;28;20021;-79
2022/05/08 12:19:51;;;;;;;5.88;4.38;;;29.60;45.90;;;;;;5030265;28;20384;-78
2022/05/08 12:22:24;;;;;;;7.43;4.20;;;30.10;46.80;;;;;;5030983;28;20484;-78
2022/05/08 12:24:53;;;;;;;5.00;4.20;;;30.50;45.70;;;;;;5030880;28;20507;-78
2022/05/08 12:27:20;;;;;;;5.70;4.40;;;29.90;45.00;;;;;;5030076;28;20025;-78
2022/05/08 12:29:46;;;;;;;9.65;4.65;;;29.70;46.50;;;;;;5061859;28;20275;-75
2022/05/08 12:32:15;;;;;;;7.18;4.38;;;29.80;45.90;;;;;;5032610;28;20022;-76
2022/05/08 12:34:42;;;;;;;5.88;4.47;;;29.00;46.50;;;;;;5030343;28;20172;-80
2022/05/08 12:37:09;;;;;;;9.13;8.00;;;28.80;46.40;;;;;;5031448;28;20057;-78
2022/05/08 12:39:35;;;;;;;7.10;5.68;;;29.50;46.10;;;;;;5031071;28;20468;-81
2022/05/08 12:42:01;;;;;;;5.57;4.70;;;30.10;44.90;;;;;;5032449;28;20037;-77
2022/05/08 12:44:26;;;;;;;4.75;4.25;;;30.80;44.90;;;;;;5031809;28;20033;-78
2022/05/08 12:46:52;;;;;;;6.65;4.22;;;31.00;44.10;;;;;;5032801;28;20094;-80
2022/05/08 12:49:18;;;;;;;6.65;4.20;;;31.30;43.10;;;;;;5043994;28;20541;-78
2022/05/08 12:51:45;;;;;;;5.60;4.18;;;31.20;43.30;;;;;;5032155;28;20056;-76
2022/05/08 12:54:11;;;;;;;6.10;4.47;;;31.10;44.60;;;;;;5051469;28;20029;-77
2022/05/08 12:56:37;;;;;;;9.13;4.20;;;30.80;44.10;;;;;;5050767;28;20033;-77
2022/05/08 13:01:49;;;;;;;6.93;3.97;;;30.00;43.60;;;;;;5053977;28;20040;-77
2022/05/08 13:04:15;;;;;;;8.80;4.28;;;29.70;43.30;;;;;;5055573;28;20539;-77
2022/05/08 13:06:41;;;;;;;5.88;4.20;;;29.60;43.40;;;;;;5055422;28;20036;-78
2022/05/08 13:09:07;;;;;;;5.85;4.03;;;30.10;44.10;;;;;;5038216;28;20468;-77
2022/05/08 13:11:34;;;;;;;7.22;4.05;;;30.70;42.00;;;;;;5055720;28;20033;-83